createdAt,value
2023-04-10T00:02:11.287Z,12.47
2023-04-10T00:04:38.344Z,13.53
2023-04-10T00:07:05.107Z,11.93
2023-04-10T00:09:31.725Z,12.67
2023-04-10T00:11:58.550Z,12.63
2023-04-10T00:14:25.488Z,12.20
2023-04-10T00:16:52.139Z,12.00
2023-04-10T00:19:18.781Z,12.50
2023-04-10T00:21:45.545Z,12.37
2023-04-10T00:24:12.209Z,12.27
2023-04-10T00:26:41.270Z,12.83
2023-04-10T00:29:08.338Z,13.57
2023-04-10T00:31:35.444Z,12.80
2023-04-10T00:34:02.194Z,14.60
2023-04-10T00:36:28.946Z,14.30
2023-04-10T00:38:55.645Z,13.53
2023-04-10T00:41:23.992Z,13.43
2023-04-10T00:43:55.446Z,13.07
2023-04-10T00:46:22.965Z,14.20
2023-04-10T00:48:51.163Z,12.93
2023-04-10T00:51:19.409Z,13.03
2023-04-10T00:53:47.757Z,13.70
2023-04-10T00:56:14.764Z,13.57
2023-04-10T00:58:41.550Z,13.63
2023-04-10T01:01:08.670Z,13.93
2023-04-10T01:03:36.051Z,12.87
2023-04-10T01:06:35.074Z,14.50
2023-04-10T01:09:16.910Z,13.27
2023-04-10T01:12:10.113Z,12.70
2023-04-10T01:14:51.598Z,14.67
2023-04-10T01:17:39.938Z,13.07
2023-04-10T01:20:11.389Z,13.47
2023-04-10T01:23:14.036Z,14.20
2023-04-10T01:25:47.126Z,12.70
2023-04-10T01:28:23.495Z,12.70
2023-04-10T01:30:58.461Z,13.10
2023-04-10T01:33:35.276Z,14.37
2023-04-10T01:36:05.537Z,13.43
2023-04-10T01:38:33.192Z,13.70
2023-04-10T01:41:00.384Z,14.97
2023-04-10T01:43:30.078Z,14.40
2023-04-10T01:45:57.783Z,13.57
2023-04-10T01:48:25.727Z,12.80
2023-04-10T01:50:52.884Z,13.53
2023-04-10T01:53:20.149Z,12.80
2023-04-10T01:55:47.426Z,12.13
2023-04-10T01:58:15.577Z,13.80
2023-04-10T02:00:43.494Z,12.73
2023-04-10T02:03:12.403Z,13.30
2023-04-10T02:06:09.047Z,12.73
2023-04-10T02:09:07.261Z,14.57
2023-04-10T02:11:57.799Z,14.13
2023-04-10T02:14:29.588Z,15.57
2023-04-10T02:16:56.637Z,13.33
2023-04-10T02:19:25.318Z,14.47
2023-04-10T02:21:52.106Z,15.30
2023-04-10T02:24:20.215Z,13.50
2023-04-10T02:26:51.540Z,15.07
2023-04-10T02:29:18.667Z,13.33
2023-04-10T02:31:46.232Z,13.67
2023-04-10T02:34:14.229Z,12.93
2023-04-10T02:36:43.292Z,12.60
2023-04-10T02:39:13.622Z,13.57
2023-04-10T02:41:49.856Z,13.87
2023-04-10T02:44:17.252Z,14.73
2023-04-10T02:46:44.467Z,14.73
2023-04-10T02:49:12.484Z,13.53
2023-04-10T02:51:39.239Z,14.07
2023-04-10T02:54:06.031Z,13.90
2023-04-10T02:56:35.034Z,14.73
2023-04-10T02:59:02.237Z,16.20
2023-04-10T03:01:32.120Z,14.90
2023-04-10T03:03:59.855Z,16.23
2023-04-10T03:06:30.902Z,14.20
2023-04-10T03:08:58.191Z,15.57
2023-04-10T03:11:27.262Z,15.30
2023-04-10T03:13:54.372Z,13.77
2023-04-10T03:16:21.465Z,15.00
2023-04-10T03:18:48.321Z,15.17
2023-04-10T03:21:15.030Z,15.83
2023-04-10T03:23:42.164Z,15.70
2023-04-10T03:26:10.325Z,14.50
2023-04-10T03:28:39.695Z,15.70
2023-04-10T03:31:09.891Z,15.07
2023-04-10T03:33:36.772Z,14.87
2023-04-10T03:36:04.673Z,14.70
2023-04-10T03:38:33.124Z,15.70
2023-04-10T03:40:59.852Z,15.43
2023-04-10T03:43:31.117Z,15.50
2023-04-10T03:45:58.337Z,17.73
2023-04-10T03:48:28.288Z,16.63
2023-04-10T03:50:55.623Z,18.00
2023-04-10T03:53:22.998Z,20.90
2023-04-10T03:55:52.527Z,23.17
2023-04-10T03:58:20.555Z,21.73
2023-04-10T04:00:47.682Z,21.07
2023-04-10T04:03:24.837Z,19.10
2023-04-10T04:06:02.686Z,17.13
2023-04-10T04:08:52.612Z,17.30
2023-04-10T04:11:39.207Z,16.23
2023-04-10T04:14:45.291Z,16.60
2023-04-10T04:17:37.400Z,15.10
2023-04-10T04:20:05.733Z,15.70
2023-04-10T04:23:02.283Z,14.87
2023-04-10T04:25:47.585Z,15.77
2023-04-10T04:28:39.990Z,14.23
2023-04-10T04:31:21.313Z,15.27
2023-04-10T04:34:06.543Z,15.77
2023-04-10T04:36:47.308Z,15.37
2023-04-10T04:39:35.928Z,14.07
2023-04-10T04:42:18.026Z,13.67
2023-04-10T04:45:03.120Z,15.13
2023-04-10T04:47:45.110Z,14.70
2023-04-10T04:50:34.925Z,13.93
2023-04-10T04:53:14.012Z,15.37
2023-04-10T04:56:01.078Z,14.33
2023-04-10T04:58:46.459Z,14.30
2023-04-10T05:01:35.438Z,14.77
2023-04-10T05:04:25.114Z,13.70
2023-04-10T05:07:24.260Z,13.33
2023-04-10T05:10:08.849Z,15.20
2023-04-10T05:12:58.409Z,13.77
2023-04-10T05:15:32.648Z,12.43
2023-04-10T05:18:09.357Z,12.87
2023-04-10T05:20:54.505Z,12.90
2023-04-10T05:23:41.447Z,12.73
2023-04-10T05:26:27.931Z,12.10
2023-04-10T05:29:14.922Z,13.23
2023-04-10T05:32:08.889Z,12.73
2023-04-10T05:34:58.751Z,13.20
2023-04-10T05:37:33.900Z,13.10
2023-04-10T05:40:09.856Z,11.60
2023-04-10T05:42:59.711Z,12.73
2023-04-10T05:45:50.909Z,13.13
2023-04-10T05:48:30.248Z,12.13
2023-04-10T05:51:16.847Z,12.60
2023-04-10T05:54:14.926Z,12.00
2023-04-10T05:57:07.955Z,12.73
2023-04-10T06:00:00.914Z,11.70
2023-04-10T06:02:49.635Z,13.13
2023-04-10T06:05:23.384Z,13.53
2023-04-10T06:07:58.372Z,13.60
2023-04-10T06:10:25.543Z,12.60
2023-04-10T06:12:53.311Z,13.27
2023-04-10T06:15:22.633Z,12.60
2023-04-10T06:17:49.808Z,12.20
2023-04-10T06:20:16.514Z,11.97
2023-04-10T06:22:43.142Z,11.90
2023-04-10T06:25:10.084Z,11.90
2023-04-10T06:27:37.372Z,12.23
2023-04-10T06:30:08.636Z,12.10
2023-04-10T06:32:35.503Z,12.17
2023-04-10T06:35:02.633Z,11.90
2023-04-10T06:37:32.850Z,12.83
2023-04-10T06:40:07.754Z,12.23
2023-04-10T06:42:34.821Z,11.57
2023-04-10T06:45:09.573Z,11.40
2023-04-10T06:47:39.115Z,12.47
2023-04-10T06:50:06.262Z,11.67
2023-04-10T06:52:33.189Z,11.33
2023-04-10T06:54:59.874Z,12.10
2023-04-10T06:57:26.588Z,11.50
2023-04-10T06:59:53.278Z,11.53
2023-04-10T07:02:20.195Z,11.67
2023-04-10T07:04:50.420Z,12.17
2023-04-10T07:07:19.215Z,11.07
2023-04-10T07:09:46.133Z,11.13
2023-04-10T07:12:12.790Z,11.00
2023-04-10T07:14:39.462Z,11.30
2023-04-10T07:17:06.388Z,10.77
2023-04-10T07:19:33.032Z,11.33
2023-04-10T07:22:00.722Z,10.87
2023-04-10T07:24:28.064Z,12.50
2023-04-10T07:26:54.803Z,10.57
2023-04-10T07:29:21.513Z,11.97
2023-04-10T07:31:48.307Z,11.57
2023-04-10T07:34:15.056Z,11.80
2023-04-10T07:36:41.726Z,11.20
2023-04-10T07:39:11.216Z,11.20
2023-04-10T07:41:37.873Z,11.90
2023-04-10T07:44:04.789Z,12.03
2023-04-10T07:46:31.427Z,12.73
2023-04-10T07:48:58.112Z,11.87
2023-04-10T07:51:24.882Z,12.00
2023-04-10T07:53:51.852Z,11.90
2023-04-10T07:56:19.800Z,10.80
2023-04-10T07:58:46.725Z,11.37
2023-04-10T08:01:13.635Z,11.93
2023-04-10T08:03:45.622Z,11.73
2023-04-10T08:06:12.520Z,11.73
2023-04-10T08:08:41.212Z,11.83
2023-04-10T08:11:25.632Z,11.33
2023-04-10T08:13:53.740Z,12.63
2023-04-10T08:16:27.867Z,12.40
2023-04-10T08:18:55.885Z,12.80
2023-04-10T08:21:22.844Z,11.33
2023-04-10T08:23:57.642Z,12.63
2023-04-10T08:26:25.659Z,12.70
2023-04-10T08:28:54.132Z,13.30
2023-04-10T08:31:22.498Z,13.30
2023-04-10T08:33:49.555Z,13.50
2023-04-10T08:36:18.381Z,13.47
2023-04-10T08:38:48.299Z,13.57
2023-04-10T08:41:16.726Z,14.47
2023-04-10T08:43:45.797Z,13.87
2023-04-10T08:46:16.221Z,15.20
2023-04-10T08:48:47.265Z,15.10
2023-04-10T08:51:20.381Z,15.53
2023-04-10T08:53:51.619Z,15.57
2023-04-10T08:56:18.935Z,16.03
2023-04-10T08:58:45.933Z,16.30
2023-04-10T09:01:12.714Z,16.77
2023-04-10T09:03:39.624Z,16.53
2023-04-10T09:06:06.769Z,16.47
2023-04-10T09:08:34.114Z,15.93
2023-04-10T09:11:00.979Z,15.67
2023-04-10T09:13:39.335Z,18.53
2023-04-10T09:16:07.055Z,20.10
2023-04-10T09:19:05.041Z,19.03
2023-04-10T09:21:32.421Z,18.50
2023-04-10T09:24:02.356Z,20.03
2023-04-10T09:26:33.551Z,19.90
2023-04-10T09:29:04.302Z,19.67
2023-04-10T09:31:40.330Z,19.50
2023-04-10T09:34:10.240Z,18.90
2023-04-10T09:36:37.681Z,19.17
2023-04-10T09:39:05.442Z,19.10
2023-04-10T09:41:32.151Z,19.60
2023-04-10T09:44:10.708Z,20.03
2023-04-10T09:46:38.001Z,19.80
2023-04-10T09:49:05.466Z,19.77
2023-04-10T09:51:34.701Z,20.47
2023-04-10T09:54:02.439Z,19.50
2023-04-10T09:56:37.093Z,21.10
2023-04-10T09:59:04.867Z,20.27
2023-04-10T10:01:34.834Z,20.07
2023-04-10T10:04:03.595Z,20.30
2023-04-10T10:06:33.864Z,19.90
2023-04-10T10:09:03.200Z,19.60
2023-04-10T10:11:32.872Z,19.70
2023-04-10T10:14:00.562Z,19.97
2023-04-10T10:16:27.151Z,18.60
2023-04-10T10:19:34.232Z,19.07
2023-04-10T10:22:01.859Z,19.03
2023-04-10T10:24:30.005Z,18.77
2023-04-10T10:26:57.441Z,18.40
2023-04-10T10:29:24.668Z,19.03
2023-04-10T10:31:55.545Z,20.67
2023-04-10T10:34:22.332Z,19.97
2023-04-10T10:36:51.231Z,18.80
2023-04-10T10:39:17.934Z,19.90
2023-04-10T10:41:54.697Z,19.33
2023-04-10T10:44:30.532Z,18.63
2023-04-10T10:47:17.373Z,19.57
2023-04-10T10:49:55.324Z,20.00
2023-04-10T10:52:52.785Z,19.00
2023-04-10T10:55:22.610Z,20.07
2023-04-10T10:58:00.435Z,21.07
2023-04-10T11:00:52.915Z,21.23
2023-04-10T11:03:19.759Z,19.93
2023-04-10T11:06:03.869Z,20.27
2023-04-10T11:08:33.752Z,20.57
2023-04-10T11:11:07.240Z,19.40
2023-04-10T11:13:34.268Z,20.23
2023-04-10T11:16:02.992Z,20.30
2023-04-10T11:18:44.915Z,19.47
2023-04-10T11:21:18.549Z,19.43
2023-04-10T11:24:05.640Z,20.20
2023-04-10T11:26:39.372Z,19.17
2023-04-10T11:29:06.666Z,19.87
2023-04-10T11:31:34.229Z,20.47
2023-04-10T11:34:03.293Z,20.83
2023-04-10T11:36:30.589Z,21.20
2023-04-10T11:38:58.104Z,22.53
2023-04-10T11:41:36.697Z,19.43
2023-04-10T11:44:10.289Z,20.70
2023-04-10T11:46:38.620Z,18.63
2023-04-10T11:49:06.703Z,20.03
2023-04-10T11:51:33.858Z,20.27
2023-04-10T11:54:16.465Z,20.87
2023-04-10T11:56:45.200Z,21.13
2023-04-10T11:59:13.650Z,18.77
2023-04-10T12:01:43.144Z,18.63
2023-04-10T12:04:21.202Z,19.37
2023-04-10T12:06:52.902Z,20.80
2023-04-10T12:09:20.960Z,20.73
2023-04-10T12:12:01.657Z,21.50
2023-04-10T12:14:36.445Z,18.97
2023-04-10T12:17:04.522Z,17.50
2023-04-10T12:19:31.537Z,18.03
2023-04-10T12:21:58.900Z,18.53
2023-04-10T12:24:48.608Z,20.23
2023-04-10T12:27:16.736Z,16.63
2023-04-10T12:29:44.278Z,17.40
2023-04-10T12:32:13.199Z,19.47
2023-04-10T12:34:39.996Z,19.10
2023-04-10T12:37:07.482Z,18.97
2023-04-10T12:39:34.226Z,17.90
2023-04-10T12:42:20.801Z,18.07
2023-04-10T12:44:55.748Z,16.83
2023-04-10T12:47:27.580Z,17.13
2023-04-10T12:50:08.496Z,18.43
2023-04-10T12:52:36.105Z,16.67
2023-04-10T12:55:16.995Z,17.93
2023-04-10T12:57:46.185Z,17.90
2023-04-10T13:00:15.947Z,17.23
2023-04-10T13:02:43.415Z,19.10
2023-04-10T13:05:10.643Z,18.17
2023-04-10T13:07:38.269Z,18.93
2023-04-10T13:10:06.029Z,18.20
2023-04-10T13:12:34.845Z,16.97
2023-04-10T13:15:02.809Z,15.17
2023-04-10T13:17:29.505Z,15.73
2023-04-10T13:19:56.296Z,16.27
2023-04-10T13:22:22.975Z,16.90
2023-04-10T13:24:49.701Z,15.60
2023-04-10T13:27:16.446Z,16.20
2023-04-10T13:29:43.451Z,15.53
2023-04-10T13:32:12.695Z,15.73
2023-04-10T13:34:41.464Z,16.20
2023-04-10T13:37:09.672Z,14.70
2023-04-10T13:39:36.348Z,14.30
2023-04-10T13:42:02.972Z,14.57
2023-04-10T13:44:29.690Z,14.10
2023-04-10T13:46:58.166Z,14.50
2023-04-10T13:49:24.916Z,12.93
2023-04-10T13:51:51.557Z,11.27
2023-04-10T13:54:18.224Z,11.43
2023-04-10T13:56:46.495Z,11.00
2023-04-10T13:59:13.459Z,11.40
2023-04-10T14:01:40.194Z,12.13
2023-04-10T14:04:06.988Z,12.87
2023-04-10T14:06:33.943Z,13.80
2023-04-10T14:09:00.651Z,13.83
2023-04-10T14:11:27.419Z,14.20
2023-04-10T14:13:54.035Z,14.47
2023-04-10T14:16:20.862Z,14.73
2023-04-10T14:18:47.631Z,16.30
2023-04-10T14:21:14.297Z,15.90
2023-04-10T14:23:41.353Z,15.83
2023-04-10T14:26:08.232Z,15.30
2023-04-10T14:28:35.052Z,15.43
2023-04-10T14:31:01.914Z,14.40
2023-04-10T14:33:28.837Z,14.83
2023-04-10T14:35:55.728Z,14.40
2023-04-10T14:38:22.450Z,13.87
2023-04-10T14:40:50.314Z,12.93
2023-04-10T14:43:17.159Z,12.23
2023-04-10T14:45:43.906Z,11.40
2023-04-10T14:48:12.882Z,12.73
2023-04-10T14:50:39.929Z,12.07
2023-04-10T14:53:09.541Z,12.57
2023-04-10T14:55:39.886Z,12.63
2023-04-10T14:58:07.146Z,13.03
2023-04-10T15:00:33.840Z,13.67
2023-04-10T15:03:00.888Z,14.60
2023-04-10T15:05:27.993Z,13.20
2023-04-10T15:07:55.113Z,13.53
2023-04-10T15:10:21.888Z,13.03
2023-04-10T15:12:48.523Z,13.80
2023-04-10T15:15:15.351Z,13.47
2023-04-10T15:17:42.120Z,12.97
2023-04-10T15:20:09.249Z,13.90
2023-04-10T15:22:36.115Z,14.10
2023-04-10T15:25:02.892Z,13.43
2023-04-10T15:27:29.584Z,12.40
2023-04-10T15:29:56.208Z,12.80
2023-04-10T15:32:22.848Z,12.77
2023-04-10T15:34:49.569Z,12.00
2023-04-10T15:37:16.210Z,12.00
2023-04-10T15:39:42.862Z,12.10
2023-04-10T15:42:09.524Z,12.37
2023-04-10T15:44:36.121Z,12.37
2023-04-10T15:47:02.879Z,13.47
2023-04-10T15:49:37.636Z,13.10
2023-04-10T15:52:06.376Z,13.90
2023-04-10T15:54:33.781Z,12.43
2023-04-10T15:57:01.580Z,13.23
2023-04-10T15:59:28.200Z,13.13
2023-04-10T16:01:54.996Z,13.00
2023-04-10T16:04:21.824Z,13.50
2023-04-10T16:06:48.571Z,13.93
2023-04-10T16:09:25.730Z,13.90
2023-04-10T16:11:54.378Z,13.60
2023-04-10T16:14:21.142Z,13.07
2023-04-10T16:16:48.005Z,13.17
2023-04-10T16:19:14.609Z,12.80
2023-04-10T16:21:42.716Z,14.10
2023-04-10T16:24:11.015Z,13.50
2023-04-10T16:26:37.760Z,12.50
2023-04-10T16:29:04.396Z,13.03
2023-04-10T16:31:31.265Z,12.73
2023-04-10T16:33:57.998Z,12.27
2023-04-10T16:36:24.689Z,12.67
2023-04-10T16:38:51.359Z,12.90
2023-04-10T16:41:18.546Z,12.30
2023-04-10T16:43:45.357Z,12.30
2023-04-10T16:46:12.371Z,11.97
2023-04-10T16:48:39.040Z,12.63
2023-04-10T16:51:06.986Z,12.27
2023-04-10T16:53:35.920Z,11.87
2023-04-10T16:56:05.136Z,12.40
2023-04-10T16:58:36.871Z,11.93
2023-04-10T17:01:35.229Z,14.10
2023-04-10T17:04:02.037Z,14.30
2023-04-10T17:06:28.747Z,14.80
2023-04-10T17:08:55.489Z,15.57
2023-04-10T17:11:22.331Z,15.43
2023-04-10T17:13:48.975Z,15.03
2023-04-10T17:16:16.081Z,14.77
2023-04-10T17:18:43.255Z,14.50
2023-04-10T17:21:13.751Z,14.87
2023-04-10T17:23:41.022Z,14.97
2023-04-10T17:26:13.287Z,15.13
2023-04-10T17:28:39.964Z,15.33
2023-04-10T17:31:06.837Z,14.00
2023-04-10T17:33:33.573Z,14.97
2023-04-10T17:36:00.239Z,14.60
2023-04-10T17:38:26.858Z,13.77
2023-04-10T17:40:53.444Z,13.73
2023-04-10T17:43:20.224Z,15.03
2023-04-10T17:45:46.880Z,14.23
2023-04-10T17:48:13.682Z,15.50
2023-04-10T17:50:40.433Z,14.63
2023-04-10T17:53:07.076Z,15.13
2023-04-10T17:55:38.774Z,14.80
2023-04-10T17:58:05.953Z,14.00
2023-04-10T18:00:33.701Z,14.73
2023-04-10T18:03:01.352Z,15.70
2023-04-10T18:05:29.142Z,15.17
2023-04-10T18:07:56.165Z,15.17
2023-04-10T18:10:23.107Z,15.37
2023-04-10T18:12:49.840Z,14.73
2023-04-10T18:15:16.549Z,14.80
2023-04-10T18:17:45.569Z,14.77
2023-04-10T18:20:12.193Z,15.23
2023-04-10T18:22:39.365Z,15.47
2023-04-10T18:25:06.863Z,16.17
2023-04-10T18:27:35.925Z,15.70
2023-04-10T18:30:02.531Z,15.23
2023-04-10T18:32:29.220Z,15.83
2023-04-10T18:34:55.900Z,15.30
2023-04-10T18:37:22.523Z,15.63
2023-04-10T18:39:49.141Z,14.57
2023-04-10T18:42:15.731Z,14.67
2023-04-10T18:44:42.370Z,13.97
2023-04-10T18:47:11.106Z,14.20
2023-04-10T18:49:37.882Z,14.13
2023-04-10T18:52:04.514Z,14.17
2023-04-10T18:54:31.235Z,14.87
2023-04-10T18:57:30.993Z,14.67
2023-04-10T18:59:57.913Z,14.13
2023-04-10T19:02:24.907Z,14.30
2023-04-10T19:04:53.355Z,14.03
2023-04-10T19:07:20.144Z,14.43
2023-04-10T19:09:47.844Z,14.47
2023-04-10T19:12:14.738Z,13.93
2023-04-10T19:14:41.422Z,14.47
2023-04-10T19:17:08.454Z,13.77
2023-04-10T19:19:35.156Z,13.27
2023-04-10T19:22:01.863Z,13.77
2023-04-10T19:24:29.180Z,14.30
2023-04-10T19:26:56.551Z,14.50
2023-04-10T19:29:23.358Z,13.37
2023-04-10T19:31:50.017Z,15.37
2023-04-10T19:34:16.745Z,14.70
2023-04-10T19:36:43.423Z,15.23
2023-04-10T19:39:10.025Z,15.33
2023-04-10T19:41:41.745Z,15.17
2023-04-10T19:44:08.772Z,16.13
2023-04-10T19:46:35.600Z,15.70
2023-04-10T19:49:02.327Z,15.87
2023-04-10T19:51:28.954Z,16.10
2023-04-10T19:53:56.028Z,15.37
2023-04-10T19:56:22.835Z,15.13
2023-04-10T19:58:49.489Z,14.67
2023-04-10T20:01:16.361Z,14.73
2023-04-10T20:03:43.167Z,15.03
2023-04-10T20:06:10.414Z,14.93
2023-04-10T20:08:37.208Z,14.47
2023-04-10T20:11:06.415Z,15.30
2023-04-10T20:13:34.546Z,15.20
2023-04-10T20:16:01.334Z,14.60
2023-04-10T20:18:27.972Z,14.70
2023-04-10T20:20:54.616Z,14.73
2023-04-10T20:23:21.270Z,14.73
2023-04-10T20:25:47.957Z,14.73
2023-04-10T20:28:15.635Z,15.47
2023-04-10T20:30:43.869Z,14.57
2023-04-10T20:33:11.116Z,14.80
2023-04-10T20:35:38.087Z,15.30
2023-04-10T20:38:04.734Z,15.33
2023-04-10T20:40:31.327Z,15.87
2023-04-10T20:42:57.940Z,17.03
2023-04-10T20:45:24.600Z,17.33
2023-04-10T20:47:51.269Z,17.87
2023-04-10T20:50:18.408Z,17.63
2023-04-10T20:52:45.045Z,17.57
2023-04-10T20:55:11.719Z,17.60
2023-04-10T20:57:38.412Z,17.30
2023-04-10T21:00:05.660Z,19.37
2023-04-10T21:02:32.691Z,17.33
2023-04-10T21:04:59.754Z,16.13
2023-04-10T21:07:26.438Z,16.43
2023-04-10T21:09:53.150Z,16.13
2023-04-10T21:12:19.795Z,17.50
2023-04-10T21:14:46.652Z,16.53
2023-04-10T21:17:13.244Z,17.40
2023-04-10T21:19:39.982Z,16.83
2023-04-10T21:22:06.605Z,16.93
2023-04-10T21:24:33.270Z,16.70
2023-04-10T21:26:59.911Z,15.97
2023-04-10T21:29:26.508Z,17.23
2023-04-10T21:31:53.381Z,16.30
2023-04-10T21:34:20.099Z,16.87
2023-04-10T21:36:47.957Z,15.47
2023-04-10T21:39:14.691Z,15.97
2023-04-10T21:41:41.410Z,15.40
2023-04-10T21:44:08.097Z,15.67
2023-04-10T21:46:34.814Z,16.43
2023-04-10T21:49:01.527Z,16.13
2023-04-10T21:51:28.454Z,15.73
2023-04-10T21:53:55.249Z,16.00
2023-04-10T21:56:21.916Z,16.13
2023-04-10T21:58:48.522Z,16.73
2023-04-10T22:01:15.328Z,16.23
2023-04-10T22:03:42.040Z,15.90
2023-04-10T22:06:09.149Z,15.80
2023-04-10T22:08:38.435Z,18.70
2023-04-10T22:11:06.101Z,15.77
2023-04-10T22:13:32.923Z,15.80
2023-04-10T22:16:02.482Z,15.43
2023-04-10T22:18:29.717Z,15.63
2023-04-10T22:20:56.500Z,15.80
2023-04-10T22:23:23.180Z,15.60
2023-04-10T22:25:50.002Z,15.30
2023-04-10T22:28:16.672Z,14.33
2023-04-10T22:30:43.358Z,15.43
2023-04-10T22:33:10.588Z,15.77
2023-04-10T22:35:37.646Z,15.70
2023-04-10T22:38:04.273Z,15.37
2023-04-10T22:40:31.357Z,14.70
2023-04-10T22:42:58.114Z,15.07
2023-04-10T22:45:24.852Z,15.63
2023-04-10T22:47:51.530Z,14.73
2023-04-10T22:50:18.314Z,15.07
2023-04-10T22:52:44.995Z,15.73
2023-04-10T22:55:11.764Z,15.00
2023-04-10T22:57:38.422Z,14.73
2023-04-10T23:00:05.458Z,14.77
2023-04-10T23:02:32.176Z,16.07
2023-04-10T23:04:58.972Z,14.53
2023-04-10T23:07:27.759Z,14.17
2023-04-10T23:09:54.432Z,14.83
2023-04-10T23:12:21.158Z,15.00
2023-04-10T23:14:47.780Z,14.50
2023-04-10T23:17:14.437Z,15.70
2023-04-10T23:19:41.162Z,14.33
2023-04-10T23:22:07.842Z,14.47
2023-04-10T23:24:34.444Z,14.50
2023-04-10T23:27:01.057Z,14.80
2023-04-10T23:29:27.703Z,14.17
2023-04-10T23:31:54.348Z,14.03
2023-04-10T23:34:21.196Z,14.83
2023-04-10T23:36:47.834Z,14.83
2023-04-10T23:39:14.528Z,13.80
2023-04-10T23:41:41.270Z,14.03
2023-04-10T23:44:07.919Z,15.30
2023-04-10T23:46:34.731Z,13.50
2023-04-10T23:49:01.440Z,14.73
2023-04-10T23:51:28.163Z,15.83
2023-04-10T23:53:54.770Z,15.37
2023-04-10T23:56:21.642Z,14.80
2023-04-10T23:58:48.338Z,14.57
